sensor_id;sensor_type;location;lat;lon;timestamp;temperature;humidity
19192;DHT22;9728;48.194;16.346;2022-12-16T00:01:27;9.70;51.90
19192;DHT22;9728;48.194;16.346;2022-12-16T00:06:32;9.70;51.90
19192;DHT22;9728;48.194;16.346;2022-12-16T00:11:35;9.70;51.90
19192;DHT22;9728;48.194;16.346;2022-12-16T00:16:40;9.70;51.90
19192;DHT22;9728;48.194;16.346;2022-12-16T00:21:44;9.70;52.00
19192;DHT22;9728;48.194;16.346;2022-12-16T00:26:47;9.60;51.90
19192;DHT22;9728;48.194;16.346;2022-12-16T00:31:54;9.60;52.00
19192;DHT22;9728;48.194;16.346;2022-12-16T00:36:57;9.70;52.20
19192;DHT22;9728;48.194;16.346;2022-12-16T00:42:01;9.60;52.10
19192;DHT22;9728;48.194;16.346;2022-12-16T00:47:06;9.70;52.10
19192;DHT22;9728;48.194;16.346;2022-12-16T00:52:09;9.70;52.30
19192;DHT22;9728;48.194;16.346;2022-12-16T00:57:12;9.70;52.10
19192;DHT22;9728;48.194;16.346;2022-12-16T01:02:17;9.70;52.20
19192;DHT22;9728;48.194;16.346;2022-12-16T01:07:20;9.60;52.30
19192;DHT22;9728;48.194;16.346;2022-12-16T01:12:24;9.60;52.20
19192;DHT22;9728;48.194;16.346;2022-12-16T01:17:29;9.60;52.20
19192;DHT22;9728;48.194;16.346;2022-12-16T01:22:33;9.60;52.40
19192;DHT22;9728;48.194;16.346;2022-12-16T01:27:36;9.70;52.50
19192;DHT22;9728;48.194;16.346;2022-12-16T01:32:41;9.70;52.50
19192;DHT22;9728;48.194;16.346;2022-12-16T01:37:45;9.70;52.60
19192;DHT22;9728;48.194;16.346;2022-12-16T01:42:48;9.70;52.60
19192;DHT22;9728;48.194;16.346;2022-12-16T01:47:58;9.70;52.60
19192;DHT22;9728;48.194;16.346;2022-12-16T01:53:03;9.70;52.80
19192;DHT22;9728;48.194;16.346;2022-12-16T01:58:09;9.80;52.70
19192;DHT22;9728;48.194;16.346;2022-12-16T02:03:15;9.80;52.70
19192;DHT22;9728;48.194;16.346;2022-12-16T02:08:19;9.90;52.80
19192;DHT22;9728;48.194;16.346;2022-12-16T02:13:30;9.90;52.70
19192;DHT22;9728;48.194;16.346;2022-12-16T02:18:44;9.90;52.90
19192;DHT22;9728;48.194;16.346;2022-12-16T02:30:04;9.90;53.10
19192;DHT22;9728;48.194;16.346;2022-12-16T02:35:17;9.90;53.20
19192;DHT22;9728;48.194;16.346;2022-12-16T02:40:25;10.00;53.00
19192;DHT22;9728;48.194;16.346;2022-12-16T02:45:30;10.00;52.80
19192;DHT22;9728;48.194;16.346;2022-12-16T02:50:39;10.00;52.80
19192;DHT22;9728;48.194;16.346;2022-12-16T02:55:48;10.10;53.00
19192;DHT22;9728;48.194;16.346;2022-12-16T03:00:59;10.10;52.90
19192;DHT22;9728;48.194;16.346;2022-12-16T03:06:10;10.10;53.00
19192;DHT22;9728;48.194;16.346;2022-12-16T03:11:16;10.10;52.90
19192;DHT22;9728;48.194;16.346;2022-12-16T03:16:21;10.20;52.70
19192;DHT22;9728;48.194;16.346;2022-12-16T03:21:29;10.20;52.80
19192;DHT22;9728;48.194;16.346;2022-12-16T03:26:37;10.20;52.90
19192;DHT22;9728;48.194;16.346;2022-12-16T03:31:44;10.20;52.80
19192;DHT22;9728;48.194;16.346;2022-12-16T03:36:52;10.20;52.90
19192;DHT22;9728;48.194;16.346;2022-12-16T03:41:58;10.20;52.90
19192;DHT22;9728;48.194;16.346;2022-12-16T03:47:02;10.20;52.70
19192;DHT22;9728;48.194;16.346;2022-12-16T03:52:07;10.20;52.70
19192;DHT22;9728;48.194;16.346;2022-12-16T03:57:10;10.20;52.80
19192;DHT22;9728;48.194;16.346;2022-12-16T04:02:16;10.20;53.50
19192;DHT22;9728;48.194;16.346;2022-12-16T04:07:22;10.20;52.80
19192;DHT22;9728;48.194;16.346;2022-12-16T04:12:25;10.20;53.00
19192;DHT22;9728;48.194;16.346;2022-12-16T04:17:46;10.20;53.00
19192;DHT22;9728;48.194;16.346;2022-12-16T04:23:09;10.20;53.00
19192;DHT22;9728;48.194;16.346;2022-12-16T04:28:31;10.20;53.10
19192;DHT22;9728;48.194;16.346;2022-12-16T04:33:35;10.30;53.00
19192;DHT22;9728;48.194;16.346;2022-12-16T04:38:57;10.30;53.00
19192;DHT22;9728;48.194;16.346;2022-12-16T04:44:20;10.30;53.00
19192;DHT22;9728;48.194;16.346;2022-12-16T04:49:55;10.30;53.50
19192;DHT22;9728;48.194;16.346;2022-12-16T04:55:17;10.30;52.90
19192;DHT22;9728;48.194;16.346;2022-12-16T05:00:38;10.20;53.00
19192;DHT22;9728;48.194;16.346;2022-12-16T05:05:59;10.20;53.00
19192;DHT22;9728;48.194;16.346;2022-12-16T05:11:21;10.30;53.00
19192;DHT22;9728;48.194;16.346;2022-12-16T05:16:41;10.30;53.20
19192;DHT22;9728;48.194;16.346;2022-12-16T05:22:17;10.30;53.10
19192;DHT22;9728;48.194;16.346;2022-12-16T05:27:39;10.30;53.10
19192;DHT22;9728;48.194;16.346;2022-12-16T05:33:03;10.40;53.20
19192;DHT22;9728;48.194;16.346;2022-12-16T05:38:33;10.40;53.10
19192;DHT22;9728;48.194;16.346;2022-12-16T05:43:56;10.40;53.40
19192;DHT22;9728;48.194;16.346;2022-12-16T05:49:19;10.50;53.50
19192;DHT22;9728;48.194;16.346;2022-12-16T05:54:40;10.60;53.40
19192;DHT22;9728;48.194;16.346;2022-12-16T06:00:03;10.60;53.30
19192;DHT22;9728;48.194;16.346;2022-12-16T06:05:24;10.60;53.40
19192;DHT22;9728;48.194;16.346;2022-12-16T06:10:47;10.70;53.10
19192;DHT22;9728;48.194;16.346;2022-12-16T06:16:09;10.70;53.00
19192;DHT22;9728;48.194;16.346;2022-12-16T06:21:30;10.70;53.10
19192;DHT22;9728;48.194;16.346;2022-12-16T06:26:50;10.70;53.00
19192;DHT22;9728;48.194;16.346;2022-12-16T06:32:13;10.70;53.10
19192;DHT22;9728;48.194;16.346;2022-12-16T06:37:33;10.70;53.10
19192;DHT22;9728;48.194;16.346;2022-12-16T06:42:54;10.80;53.10
19192;DHT22;9728;48.194;16.346;2022-12-16T06:48:16;10.80;53.10
19192;DHT22;9728;48.194;16.346;2022-12-16T06:53:37;10.80;53.20
19192;DHT22;9728;48.194;16.346;2022-12-16T06:58:58;10.80;53.20
19192;DHT22;9728;48.194;16.346;2022-12-16T07:04:20;10.80;53.10
19192;DHT22;9728;48.194;16.346;2022-12-16T07:09:40;10.90;53.20
19192;DHT22;9728;48.194;16.346;2022-12-16T07:15:00;10.90;53.10
19192;DHT22;9728;48.194;16.346;2022-12-16T07:20:23;11.00;53.20
19192;DHT22;9728;48.194;16.346;2022-12-16T07:25:43;11.00;53.20
19192;DHT22;9728;48.194;16.346;2022-12-16T07:31:04;11.00;53.10
19192;DHT22;9728;48.194;16.346;2022-12-16T07:36:26;11.00;53.10
19192;DHT22;9728;48.194;16.346;2022-12-16T07:41:47;11.00;53.20
19192;DHT22;9728;48.194;16.346;2022-12-16T07:47:08;11.00;53.00
19192;DHT22;9728;48.194;16.346;2022-12-16T07:52:30;11.00;52.90
19192;DHT22;9728;48.194;16.346;2022-12-16T07:57:51;10.90;52.90
19192;DHT22;9728;48.194;16.346;2022-12-16T08:03:12;10.90;52.90
19192;DHT22;9728;48.194;16.346;2022-12-16T08:08:35;10.90;52.90
19192;DHT22;9728;48.194;16.346;2022-12-16T08:13:56;10.90;53.00
19192;DHT22;9728;48.194;16.346;2022-12-16T08:19:16;10.90;52.90
19192;DHT22;9728;48.194;16.346;2022-12-16T08:24:38;10.90;52.90
19192;DHT22;9728;48.194;16.346;2022-12-16T08:29:59;10.90;52.90
19192;DHT22;9728;48.194;16.346;2022-12-16T08:35:22;10.80;52.90
19192;DHT22;9728;48.194;16.346;2022-12-16T08:40:44;10.80;52.90
19192;DHT22;9728;48.194;16.346;2022-12-16T08:46:05;10.80;53.10
19192;DHT22;9728;48.194;16.346;2022-12-16T08:51:26;10.80;53.10
19192;DHT22;9728;48.194;16.346;2022-12-16T08:56:48;10.80;53.10
19192;DHT22;9728;48.194;16.346;2022-12-16T09:02:07;10.80;53.10
19192;DHT22;9728;48.194;16.346;2022-12-16T09:07:28;10.80;53.00
19192;DHT22;9728;48.194;16.346;2022-12-16T09:13:06;10.80;53.00
19192;DHT22;9728;48.194;16.346;2022-12-16T09:18:27;10.80;53.00
19192;DHT22;9728;48.194;16.346;2022-12-16T09:23:48;10.80;52.90
19192;DHT22;9728;48.194;16.346;2022-12-16T09:29:10;10.80;52.90
19192;DHT22;9728;48.194;16.346;2022-12-16T09:34:31;10.80;52.90
19192;DHT22;9728;48.194;16.346;2022-12-16T09:39:52;10.80;52.80
19192;DHT22;9728;48.194;16.346;2022-12-16T09:45:20;10.80;52.80
19192;DHT22;9728;48.194;16.346;2022-12-16T09:50:44;10.80;52.80
19192;DHT22;9728;48.194;16.346;2022-12-16T09:56:09;10.80;52.70
19192;DHT22;9728;48.194;16.346;2022-12-16T10:01:36;10.80;52.70
19192;DHT22;9728;48.194;16.346;2022-12-16T10:06:58;10.80;52.70
19192;DHT22;9728;48.194;16.346;2022-12-16T10:12:29;10.70;52.70
19192;DHT22;9728;48.194;16.346;2022-12-16T10:17:54;10.70;52.90
19192;DHT22;9728;48.194;16.346;2022-12-16T10:23:18;10.70;52.90
19192;DHT22;9728;48.194;16.346;2022-12-16T10:28:44;10.80;52.90
19192;DHT22;9728;48.194;16.346;2022-12-16T10:34:12;10.80;52.90
19192;DHT22;9728;48.194;16.346;2022-12-16T10:39:36;10.80;52.80
19192;DHT22;9728;48.194;16.346;2022-12-16T10:44:59;10.90;56.70
19192;DHT22;9728;48.194;16.346;2022-12-16T10:50:22;11.30;55.80
19192;DHT22;9728;48.194;16.346;2022-12-16T10:55:54;11.60;54.50
19192;DHT22;9728;48.194;16.346;2022-12-16T11:01:21;11.80;53.60
19192;DHT22;9728;48.194;16.346;2022-12-16T11:06:45;11.90;53.00
19192;DHT22;9728;48.194;16.346;2022-12-16T11:12:22;12.00;52.70
19192;DHT22;9728;48.194;16.346;2022-12-16T11:18:00;12.00;52.20
19192;DHT22;9728;48.194;16.346;2022-12-16T11:23:24;12.00;51.90
19192;DHT22;9728;48.194;16.346;2022-12-16T11:28:45;11.90;51.90
19192;DHT22;9728;48.194;16.346;2022-12-16T11:34:08;11.80;51.80
19192;DHT22;9728;48.194;16.346;2022-12-16T11:39:34;11.80;51.70
19192;DHT22;9728;48.194;16.346;2022-12-16T11:45:13;11.80;51.70
19192;DHT22;9728;48.194;16.346;2022-12-16T11:50:40;11.70;51.70
19192;DHT22;9728;48.194;16.346;2022-12-16T11:56:04;11.60;51.60
19192;DHT22;9728;48.194;16.346;2022-12-16T12:01:29;11.60;51.50
19192;DHT22;9728;48.194;16.346;2022-12-16T12:07:12;11.50;51.60
19192;DHT22;9728;48.194;16.346;2022-12-16T12:12:50;11.50;51.40
19192;DHT22;9728;48.194;16.346;2022-12-16T12:18:34;11.50;51.60
19192;DHT22;9728;48.194;16.346;2022-12-16T12:24:01;11.50;51.40
19192;DHT22;9728;48.194;16.346;2022-12-16T12:29:35;11.50;51.40
19192;DHT22;9728;48.194;16.346;2022-12-16T12:35:02;11.50;51.40
19192;DHT22;9728;48.194;16.346;2022-12-16T12:40:34;11.40;51.30
19192;DHT22;9728;48.194;16.346;2022-12-16T12:46:07;11.40;51.40
19192;DHT22;9728;48.194;16.346;2022-12-16T12:51:36;11.40;51.40
19192;DHT22;9728;48.194;16.346;2022-12-16T12:57:01;11.40;51.40
19192;DHT22;9728;48.194;16.346;2022-12-16T13:02:27;11.40;51.40
19192;DHT22;9728;48.194;16.346;2022-12-16T13:07:48;11.40;51.20
19192;DHT22;9728;48.194;16.346;2022-12-16T13:13:34;11.40;51.40
19192;DHT22;9728;48.194;16.346;2022-12-16T13:24:51;11.30;51.10
19192;DHT22;9728;48.194;16.346;2022-12-16T13:30:23;11.40;52.00
19192;DHT22;9728;48.194;16.346;2022-12-16T13:35:52;11.40;51.10
19192;DHT22;9728;48.194;16.346;2022-12-16T13:41:47;11.40;51.10
19192;DHT22;9728;48.194;16.346;2022-12-16T13:47:30;11.40;51.00
19192;DHT22;9728;48.194;16.346;2022-12-16T13:52:53;11.30;51.10
19192;DHT22;9728;48.194;16.346;2022-12-16T13:58:22;11.30;51.40
19192;DHT22;9728;48.194;16.346;2022-12-16T14:03:48;11.30;51.10
19192;DHT22;9728;48.194;16.346;2022-12-16T14:09:23;11.20;51.20
19192;DHT22;9728;48.194;16.346;2022-12-16T14:14:52;11.20;51.10
19192;DHT22;9728;48.194;16.346;2022-12-16T14:20:21;11.20;51.20
19192;DHT22;9728;48.194;16.346;2022-12-16T14:25:47;11.20;51.20
19192;DHT22;9728;48.194;16.346;2022-12-16T14:31:20;11.20;51.50
19192;DHT22;9728;48.194;16.346;2022-12-16T14:36:41;11.20;51.20
19192;DHT22;9728;48.194;16.346;2022-12-16T14:42:03;11.20;51.30
19192;DHT22;9728;48.194;16.346;2022-12-16T14:47:26;11.20;51.20
19192;DHT22;9728;48.194;16.346;2022-12-16T14:52:49;11.20;51.20
19192;DHT22;9728;48.194;16.346;2022-12-16T14:58:11;11.20;51.20
19192;DHT22;9728;48.194;16.346;2022-12-16T15:03:36;11.20;51.10
19192;DHT22;9728;48.194;16.346;2022-12-16T15:09:02;11.20;50.90
19192;DHT22;9728;48.194;16.346;2022-12-16T15:14:26;11.10;50.80
19192;DHT22;9728;48.194;16.346;2022-12-16T15:19:52;11.00;50.80
19192;DHT22;9728;48.194;16.346;2022-12-16T15:25:19;11.00;50.80
19192;DHT22;9728;48.194;16.346;2022-12-16T15:30:41;11.00;50.80
19192;DHT22;9728;48.194;16.346;2022-12-16T15:36:05;11.00;50.90
19192;DHT22;9728;48.194;16.346;2022-12-16T15:41:32;11.00;50.80
19192;DHT22;9728;48.194;16.346;2022-12-16T15:46:54;11.00;50.80
19192;DHT22;9728;48.194;16.346;2022-12-16T15:52:32;10.90;50.70
19192;DHT22;9728;48.194;16.346;2022-12-16T15:57:54;10.90;50.60
19192;DHT22;9728;48.194;16.346;2022-12-16T16:03:18;10.90;50.70
19192;DHT22;9728;48.194;16.346;2022-12-16T16:08:42;10.90;50.60
19192;DHT22;9728;48.194;16.346;2022-12-16T16:14:02;10.90;50.60
19192;DHT22;9728;48.194;16.346;2022-12-16T16:19:25;10.90;50.70
19192;DHT22;9728;48.194;16.346;2022-12-16T16:24:47;10.80;50.60
19192;DHT22;9728;48.194;16.346;2022-12-16T16:30:09;10.80;51.30
19192;DHT22;9728;48.194;16.346;2022-12-16T16:35:31;10.80;51.10
19192;DHT22;9728;48.194;16.346;2022-12-16T16:40:54;10.90;51.00
19192;DHT22;9728;48.194;16.346;2022-12-16T16:46:30;10.90;50.80
19192;DHT22;9728;48.194;16.346;2022-12-16T16:51:51;10.90;50.50
19192;DHT22;9728;48.194;16.346;2022-12-16T16:57:18;10.90;50.60
19192;DHT22;9728;48.194;16.346;2022-12-16T17:02:39;10.80;50.30
19192;DHT22;9728;48.194;16.346;2022-12-16T17:08:00;10.80;50.40
19192;DHT22;9728;48.194;16.346;2022-12-16T17:13:22;10.70;50.40
19192;DHT22;9728;48.194;16.346;2022-12-16T17:18:43;10.70;50.30
19192;DHT22;9728;48.194;16.346;2022-12-16T17:24:04;10.60;50.40
19192;DHT22;9728;48.194;16.346;2022-12-16T17:29:28;10.50;50.30
19192;DHT22;9728;48.194;16.346;2022-12-16T17:34:50;10.50;50.40
19192;DHT22;9728;48.194;16.346;2022-12-16T17:40:16;10.40;50.40
19192;DHT22;9728;48.194;16.346;2022-12-16T17:45:37;10.40;50.40
19192;DHT22;9728;48.194;16.346;2022-12-16T17:51:00;10.40;50.40
19192;DHT22;9728;48.194;16.346;2022-12-16T17:56:21;10.30;50.40
19192;DHT22;9728;48.194;16.346;2022-12-16T18:01:47;10.30;50.50
19192;DHT22;9728;48.194;16.346;2022-12-16T18:07:09;10.20;50.40
19192;DHT22;9728;48.194;16.346;2022-12-16T18:12:31;10.10;50.50
19192;DHT22;9728;48.194;16.346;2022-12-16T18:17:54;10.10;50.60
19192;DHT22;9728;48.194;16.346;2022-12-16T18:23:16;10.10;50.70
19192;DHT22;9728;48.194;16.346;2022-12-16T18:28:38;10.00;50.70
19192;DHT22;9728;48.194;16.346;2022-12-16T18:34:01;10.00;50.70
19192;DHT22;9728;48.194;16.346;2022-12-16T18:39:22;9.90;50.70
19192;DHT22;9728;48.194;16.346;2022-12-16T18:44:42;9.90;50.70
19192;DHT22;9728;48.194;16.346;2022-12-16T18:50:06;9.90;50.60
19192;DHT22;9728;48.194;16.346;2022-12-16T18:55:39;9.90;50.70
19192;DHT22;9728;48.194;16.346;2022-12-16T19:01:01;9.80;50.60
19192;DHT22;9728;48.194;16.346;2022-12-16T19:06:25;9.80;50.70
19192;DHT22;9728;48.194;16.346;2022-12-16T19:11:46;9.70;50.70
19192;DHT22;9728;48.194;16.346;2022-12-16T19:17:07;9.70;50.80
19192;DHT22;9728;48.194;16.346;2022-12-16T19:22:30;9.70;50.90
19192;DHT22;9728;48.194;16.346;2022-12-16T19:27:52;9.70;50.90
19192;DHT22;9728;48.194;16.346;2022-12-16T19:33:14;9.70;50.90
19192;DHT22;9728;48.194;16.346;2022-12-16T19:38:37;9.70;51.00
19192;DHT22;9728;48.194;16.346;2022-12-16T19:43:57;9.70;51.00
19192;DHT22;9728;48.194;16.346;2022-12-16T19:49:19;9.70;50.90
19192;DHT22;9728;48.194;16.346;2022-12-16T19:54:47;9.70;51.10
19192;DHT22;9728;48.194;16.346;2022-12-16T20:00:09;9.70;51.10
19192;DHT22;9728;48.194;16.346;2022-12-16T20:05:30;9.70;51.20
19192;DHT22;9728;48.194;16.346;2022-12-16T20:10:54;9.70;51.10
19192;DHT22;9728;48.194;16.346;2022-12-16T20:16:16;9.60;51.00
19192;DHT22;9728;48.194;16.346;2022-12-16T20:21:39;9.60;51.00
19192;DHT22;9728;48.194;16.346;2022-12-16T20:27:22;9.60;50.90
19192;DHT22;9728;48.194;16.346;2022-12-16T20:32:45;9.60;50.90
19192;DHT22;9728;48.194;16.346;2022-12-16T20:38:07;9.60;50.80
19192;DHT22;9728;48.194;16.346;2022-12-16T20:43:29;9.60;50.80
19192;DHT22;9728;48.194;16.346;2022-12-16T20:48:50;9.60;50.80
19192;DHT22;9728;48.194;16.346;2022-12-16T20:54:13;9.50;50.80
19192;DHT22;9728;48.194;16.346;2022-12-16T20:59:34;9.50;50.80
19192;DHT22;9728;48.194;16.346;2022-12-16T21:04:58;9.50;50.80
19192;DHT22;9728;48.194;16.346;2022-12-16T21:10:19;9.50;50.90
19192;DHT22;9728;48.194;16.346;2022-12-16T21:15:42;9.50;50.80
19192;DHT22;9728;48.194;16.346;2022-12-16T21:21:03;9.50;50.80
19192;DHT22;9728;48.194;16.346;2022-12-16T21:26:25;9.50;50.80
19192;DHT22;9728;48.194;16.346;2022-12-16T21:31:50;9.40;50.80
19192;DHT22;9728;48.194;16.346;2022-12-16T21:37:11;9.40;50.80
19192;DHT22;9728;48.194;16.346;2022-12-16T21:42:32;9.40;50.80
19192;DHT22;9728;48.194;16.346;2022-12-16T21:48:14;9.40;50.80
19192;DHT22;9728;48.194;16.346;2022-12-16T21:53:35;9.40;50.80
19192;DHT22;9728;48.194;16.346;2022-12-16T21:58:57;9.40;50.90
19192;DHT22;9728;48.194;16.346;2022-12-16T22:04:22;9.40;50.90
19192;DHT22;9728;48.194;16.346;2022-12-16T22:09:43;9.40;50.90
19192;DHT22;9728;48.194;16.346;2022-12-16T22:15:05;9.30;50.90
19192;DHT22;9728;48.194;16.346;2022-12-16T22:20:28;9.30;50.90
19192;DHT22;9728;48.194;16.346;2022-12-16T22:25:54;9.30;50.90
19192;DHT22;9728;48.194;16.346;2022-12-16T22:31:16;9.30;50.90
19192;DHT22;9728;48.194;16.346;2022-12-16T22:36:38;9.30;50.80
19192;DHT22;9728;48.194;16.346;2022-12-16T22:41:59;9.30;50.90
19192;DHT22;9728;48.194;16.346;2022-12-16T22:47:20;9.30;50.90
19192;DHT22;9728;48.194;16.346;2022-12-16T22:52:42;9.20;50.90
19192;DHT22;9728;48.194;16.346;2022-12-16T22:58:06;9.20;50.90
19192;DHT22;9728;48.194;16.346;2022-12-16T23:03:24;9.20;50.80
19192;DHT22;9728;48.194;16.346;2022-12-16T23:08:46;9.20;50.80
19192;DHT22;9728;48.194;16.346;2022-12-16T23:14:18;9.20;50.90
19192;DHT22;9728;48.194;16.346;2022-12-16T23:19:44;9.10;50.90
19192;DHT22;9728;48.194;16.346;2022-12-16T23:25:06;9.10;50.80
19192;DHT22;9728;48.194;16.346;2022-12-16T23:30:27;9.10;50.90
19192;DHT22;9728;48.194;16.346;2022-12-16T23:35:48;9.10;50.90
19192;DHT22;9728;48.194;16.346;2022-12-16T23:41:10;9.00;50.90
19192;DHT22;9728;48.194;16.346;2022-12-16T23:46:34;9.00;50.80
19192;DHT22;9728;48.194;16.346;2022-12-16T23:51:54;9.00;50.80
19192;DHT22;9728;48.194;16.346;2022-12-16T23:57:17;8.90;50.90
